Terminal Aerodrome Forecast
Issued by NWS

Home | Current Version | Previous Version | Text Only | Print | Product List | Glossary On
Versions: 1 2 3 4 5 6 7 8 9 10 11 12 13 14 15 16 17 18 19 20 21 22
000
FTUS44 KOUN 052320
TAFCSM
TAF
KCSM 052320Z 0600/0624 15014KT P6SM -RA BKN025 OVC040
      TEMPO 0600/0604 5SM -TSRA OVC009CB
     FM060400 17015G22KT 6SM BR OVC008
      TEMPO 0604/0608 3SM -TSRA BR OVC006CB
     FM060800 17016G24KT 4SM BR OVC006
      TEMPO 0609/0613 3SM BR OVC002
     FM061300 19020G28KT P6SM OVC012
     FM061700 18022G30KT P6SM BKN020=

USA.gov is the U.S. government's official web portal to all federal, state and local government web resources and services.